sensor_id;sensor_type;location;lat;lon;timestamp;P1;durP1;ratioP1;P2;durP2;ratioP2
5742;SDS011;2896;53.500;10.020;2024-03-07T00:01:39;65.27;;;32.53;;
5742;SDS011;2896;53.500;10.020;2024-03-07T00:04:06;68.37;;;32.27;;
5742;SDS011;2896;53.500;10.020;2024-03-07T00:06:33;66.13;;;32.40;;
5742;SDS011;2896;53.500;10.020;2024-03-07T00:09:00;75.23;;;33.77;;
5742;SDS011;2896;53.500;10.020;2024-03-07T00:11:27;76.47;;;31.20;;
5742;SDS011;2896;53.500;10.020;2024-03-07T00:13:55;66.03;;;31.37;;
5742;SDS011;2896;53.500;10.020;2024-03-07T00:16:22;68.77;;;30.70;;
5742;SDS011;2896;53.500;10.020;2024-03-07T00:18:50;63.60;;;29.40;;
5742;SDS011;2896;53.500;10.020;2024-03-07T00:21:17;62.77;;;28.90;;
5742;SDS011;2896;53.500;10.020;2024-03-07T00:23:43;68.87;;;31.10;;
5742;SDS011;2896;53.500;10.020;2024-03-07T00:26:10;62.50;;;29.33;;
5742;SDS011;2896;53.500;10.020;2024-03-07T00:28:37;62.17;;;29.97;;
5742;SDS011;2896;53.500;10.020;2024-03-07T00:31:04;56.03;;;28.63;;
5742;SDS011;2896;53.500;10.020;2024-03-07T00:33:32;67.10;;;27.33;;
5742;SDS011;2896;53.500;10.020;2024-03-07T00:36:01;56.33;;;29.03;;
5742;SDS011;2896;53.500;10.020;2024-03-07T00:38:27;54.27;;;26.70;;
5742;SDS011;2896;53.500;10.020;2024-03-07T00:40:54;55.97;;;27.77;;
5742;SDS011;2896;53.500;10.020;2024-03-07T00:43:20;60.73;;;27.43;;
5742;SDS011;2896;53.500;10.020;2024-03-07T00:45:47;52.07;;;25.13;;
5742;SDS011;2896;53.500;10.020;2024-03-07T00:48:15;54.37;;;25.43;;
5742;SDS011;2896;53.500;10.020;2024-03-07T00:50:42;58.30;;;25.57;;
5742;SDS011;2896;53.500;10.020;2024-03-07T00:53:10;51.97;;;25.57;;
5742;SDS011;2896;53.500;10.020;2024-03-07T00:55:37;60.77;;;24.40;;
5742;SDS011;2896;53.500;10.020;2024-03-07T00:58:03;51.20;;;24.10;;
5742;SDS011;2896;53.500;10.020;2024-03-07T01:00:30;55.80;;;23.90;;
5742;SDS011;2896;53.500;10.020;2024-03-07T01:02:57;57.63;;;24.00;;
5742;SDS011;2896;53.500;10.020;2024-03-07T01:05:24;44.50;;;22.20;;
5742;SDS011;2896;53.500;10.020;2024-03-07T01:07:52;48.70;;;23.00;;
5742;SDS011;2896;53.500;10.020;2024-03-07T01:10:22;40.67;;;21.70;;
5742;SDS011;2896;53.500;10.020;2024-03-07T01:12:48;47.27;;;24.27;;
5742;SDS011;2896;53.500;10.020;2024-03-07T01:15:16;55.30;;;23.90;;
5742;SDS011;2896;53.500;10.020;2024-03-07T01:17:43;47.03;;;22.90;;
5742;SDS011;2896;53.500;10.020;2024-03-07T01:20:10;43.87;;;22.97;;
5742;SDS011;2896;53.500;10.020;2024-03-07T01:22:37;49.53;;;25.00;;
5742;SDS011;2896;53.500;10.020;2024-03-07T01:25:04;57.53;;;27.10;;
5742;SDS011;2896;53.500;10.020;2024-03-07T01:27:33;59.67;;;25.30;;
5742;SDS011;2896;53.500;10.020;2024-03-07T01:30:00;64.00;;;25.60;;
5742;SDS011;2896;53.500;10.020;2024-03-07T01:32:27;52.60;;;23.83;;
5742;SDS011;2896;53.500;10.020;2024-03-07T01:34:55;54.27;;;22.97;;
5742;SDS011;2896;53.500;10.020;2024-03-07T01:37:22;54.93;;;24.40;;
5742;SDS011;2896;53.500;10.020;2024-03-07T01:39:49;54.30;;;22.13;;
5742;SDS011;2896;53.500;10.020;2024-03-07T01:42:15;57.57;;;25.17;;
5742;SDS011;2896;53.500;10.020;2024-03-07T01:44:43;54.70;;;25.30;;
5742;SDS011;2896;53.500;10.020;2024-03-07T01:47:10;44.70;;;23.07;;
5742;SDS011;2896;53.500;10.020;2024-03-07T01:49:37;54.13;;;23.10;;
5742;SDS011;2896;53.500;10.020;2024-03-07T01:52:05;53.10;;;23.23;;
5742;SDS011;2896;53.500;10.020;2024-03-07T01:54:31;51.10;;;23.87;;
5742;SDS011;2896;53.500;10.020;2024-03-07T01:56:59;50.00;;;22.50;;
5742;SDS011;2896;53.500;10.020;2024-03-07T01:59:27;51.93;;;24.23;;
5742;SDS011;2896;53.500;10.020;2024-03-07T02:01:58;47.37;;;23.00;;
5742;SDS011;2896;53.500;10.020;2024-03-07T02:04:27;46.80;;;23.13;;
5742;SDS011;2896;53.500;10.020;2024-03-07T02:06:54;51.20;;;23.50;;
5742;SDS011;2896;53.500;10.020;2024-03-07T02:09:21;49.90;;;24.53;;
5742;SDS011;2896;53.500;10.020;2024-03-07T02:11:48;60.33;;;26.80;;
5742;SDS011;2896;53.500;10.020;2024-03-07T02:14:15;52.33;;;25.40;;
5742;SDS011;2896;53.500;10.020;2024-03-07T02:16:42;59.77;;;26.27;;
5742;SDS011;2896;53.500;10.020;2024-03-07T02:19:11;48.90;;;25.50;;
5742;SDS011;2896;53.500;10.020;2024-03-07T02:21:42;68.10;;;29.37;;
5742;SDS011;2896;53.500;10.020;2024-03-07T02:24:08;47.23;;;25.60;;
5742;SDS011;2896;53.500;10.020;2024-03-07T02:26:35;47.50;;;25.27;;
5742;SDS011;2896;53.500;10.020;2024-03-07T02:29:04;52.57;;;27.13;;
5742;SDS011;2896;53.500;10.020;2024-03-07T02:31:31;69.83;;;26.80;;
5742;SDS011;2896;53.500;10.020;2024-03-07T02:34:02;45.00;;;26.13;;
5742;SDS011;2896;53.500;10.020;2024-03-07T02:36:29;62.17;;;27.60;;
5742;SDS011;2896;53.500;10.020;2024-03-07T02:38:57;57.07;;;25.67;;
5742;SDS011;2896;53.500;10.020;2024-03-07T02:41:24;53.33;;;28.07;;
5742;SDS011;2896;53.500;10.020;2024-03-07T02:43:51;54.33;;;27.10;;
5742;SDS011;2896;53.500;10.020;2024-03-07T02:46:18;55.30;;;24.90;;
5742;SDS011;2896;53.500;10.020;2024-03-07T02:48:44;59.03;;;26.53;;
5742;SDS011;2896;53.500;10.020;2024-03-07T02:51:11;54.13;;;26.43;;
5742;SDS011;2896;53.500;10.020;2024-03-07T02:53:38;55.37;;;27.93;;
5742;SDS011;2896;53.500;10.020;2024-03-07T02:56:06;52.30;;;26.10;;
5742;SDS011;2896;53.500;10.020;2024-03-07T02:58:34;49.27;;;26.70;;
5742;SDS011;2896;53.500;10.020;2024-03-07T03:01:01;45.47;;;24.70;;
5742;SDS011;2896;53.500;10.020;2024-03-07T03:03:29;61.77;;;25.83;;
5742;SDS011;2896;53.500;10.020;2024-03-07T03:05:57;45.80;;;24.50;;
5742;SDS011;2896;53.500;10.020;2024-03-07T03:08:24;47.40;;;26.07;;
5742;SDS011;2896;53.500;10.020;2024-03-07T03:10:53;59.10;;;27.03;;
5742;SDS011;2896;53.500;10.020;2024-03-07T03:13:21;47.10;;;25.80;;
5742;SDS011;2896;53.500;10.020;2024-03-07T03:15:48;51.50;;;24.43;;
5742;SDS011;2896;53.500;10.020;2024-03-07T03:18:15;45.30;;;24.40;;
5742;SDS011;2896;53.500;10.020;2024-03-07T03:20:42;51.83;;;23.83;;
5742;SDS011;2896;53.500;10.020;2024-03-07T03:23:13;48.40;;;23.37;;
5742;SDS011;2896;53.500;10.020;2024-03-07T03:25:40;56.67;;;26.37;;
5742;SDS011;2896;53.500;10.020;2024-03-07T03:28:07;56.57;;;24.17;;
5742;SDS011;2896;53.500;10.020;2024-03-07T03:30:36;52.17;;;23.90;;
5742;SDS011;2896;53.500;10.020;2024-03-07T03:33:03;57.60;;;25.30;;
5742;SDS011;2896;53.500;10.020;2024-03-07T03:35:30;49.37;;;24.33;;
5742;SDS011;2896;53.500;10.020;2024-03-07T03:37:57;46.87;;;23.70;;
5742;SDS011;2896;53.500;10.020;2024-03-07T03:40:24;42.77;;;23.07;;
5742;SDS011;2896;53.500;10.020;2024-03-07T03:42:50;57.47;;;22.33;;
5742;SDS011;2896;53.500;10.020;2024-03-07T03:45:18;42.23;;;21.33;;
5742;SDS011;2896;53.500;10.020;2024-03-07T03:47:46;52.70;;;24.07;;
5742;SDS011;2896;53.500;10.020;2024-03-07T03:50:13;44.63;;;21.90;;
5742;SDS011;2896;53.500;10.020;2024-03-07T03:52:40;43.40;;;21.93;;
5742;SDS011;2896;53.500;10.020;2024-03-07T03:55:07;49.63;;;23.97;;
5742;SDS011;2896;53.500;10.020;2024-03-07T03:57:35;51.50;;;24.23;;
5742;SDS011;2896;53.500;10.020;2024-03-07T04:00:02;57.00;;;22.97;;
5742;SDS011;2896;53.500;10.020;2024-03-07T04:02:37;44.47;;;21.57;;
5742;SDS011;2896;53.500;10.020;2024-03-07T04:05:06;40.50;;;21.87;;
5742;SDS011;2896;53.500;10.020;2024-03-07T04:07:34;44.70;;;22.77;;
5742;SDS011;2896;53.500;10.020;2024-03-07T04:10:01;47.33;;;20.60;;
5742;SDS011;2896;53.500;10.020;2024-03-07T04:12:29;43.33;;;20.57;;
5742;SDS011;2896;53.500;10.020;2024-03-07T04:14:56;44.47;;;20.07;;
5742;SDS011;2896;53.500;10.020;2024-03-07T04:17:22;41.40;;;21.27;;
5742;SDS011;2896;53.500;10.020;2024-03-07T04:19:50;43.83;;;21.97;;
5742;SDS011;2896;53.500;10.020;2024-03-07T04:22:18;37.60;;;19.03;;
5742;SDS011;2896;53.500;10.020;2024-03-07T04:24:45;45.40;;;20.10;;
5742;SDS011;2896;53.500;10.020;2024-03-07T04:27:13;38.53;;;20.60;;
5742;SDS011;2896;53.500;10.020;2024-03-07T04:29:40;40.13;;;19.07;;
5742;SDS011;2896;53.500;10.020;2024-03-07T04:32:07;44.50;;;19.77;;
5742;SDS011;2896;53.500;10.020;2024-03-07T04:34:34;37.30;;;19.70;;
5742;SDS011;2896;53.500;10.020;2024-03-07T04:37:01;38.40;;;20.20;;
5742;SDS011;2896;53.500;10.020;2024-03-07T04:39:30;39.20;;;21.03;;
5742;SDS011;2896;53.500;10.020;2024-03-07T04:41:58;37.83;;;20.33;;
5742;SDS011;2896;53.500;10.020;2024-03-07T04:44:26;34.17;;;19.80;;
5742;SDS011;2896;53.500;10.020;2024-03-07T04:46:53;35.43;;;19.67;;
5742;SDS011;2896;53.500;10.020;2024-03-07T04:49:21;35.90;;;20.33;;
5742;SDS011;2896;53.500;10.020;2024-03-07T04:51:49;31.07;;;18.70;;
5742;SDS011;2896;53.500;10.020;2024-03-07T04:54:16;27.93;;;16.97;;
5742;SDS011;2896;53.500;10.020;2024-03-07T04:56:43;36.70;;;17.43;;
5742;SDS011;2896;53.500;10.020;2024-03-07T04:59:10;28.87;;;17.40;;
5742;SDS011;2896;53.500;10.020;2024-03-07T05:01:37;31.93;;;18.13;;
5742;SDS011;2896;53.500;10.020;2024-03-07T05:04:04;34.87;;;19.60;;
5742;SDS011;2896;53.500;10.020;2024-03-07T05:06:31;35.20;;;19.63;;
5742;SDS011;2896;53.500;10.020;2024-03-07T05:08:59;36.20;;;19.10;;
5742;SDS011;2896;53.500;10.020;2024-03-07T05:11:26;38.47;;;18.70;;
5742;SDS011;2896;53.500;10.020;2024-03-07T05:13:54;29.27;;;17.57;;
5742;SDS011;2896;53.500;10.020;2024-03-07T05:16:21;31.53;;;17.60;;
5742;SDS011;2896;53.500;10.020;2024-03-07T05:18:47;32.63;;;19.03;;
5742;SDS011;2896;53.500;10.020;2024-03-07T05:21:15;30.37;;;16.97;;
5742;SDS011;2896;53.500;10.020;2024-03-07T05:24:03;28.63;;;16.77;;
5742;SDS011;2896;53.500;10.020;2024-03-07T05:26:30;29.37;;;16.70;;
5742;SDS011;2896;53.500;10.020;2024-03-07T05:29:00;26.60;;;16.13;;
5742;SDS011;2896;53.500;10.020;2024-03-07T05:31:30;37.17;;;17.67;;
5742;SDS011;2896;53.500;10.020;2024-03-07T05:33:58;35.30;;;17.20;;
5742;SDS011;2896;53.500;10.020;2024-03-07T05:36:25;28.83;;;17.30;;
5742;SDS011;2896;53.500;10.020;2024-03-07T05:38:52;30.10;;;16.50;;
5742;SDS011;2896;53.500;10.020;2024-03-07T05:41:19;31.17;;;17.10;;
5742;SDS011;2896;53.500;10.020;2024-03-07T05:43:45;32.37;;;17.60;;
5742;SDS011;2896;53.500;10.020;2024-03-07T05:46:14;25.60;;;16.83;;
5742;SDS011;2896;53.500;10.020;2024-03-07T05:48:40;33.00;;;17.50;;
5742;SDS011;2896;53.500;10.020;2024-03-07T05:51:07;32.80;;;17.53;;
5742;SDS011;2896;53.500;10.020;2024-03-07T05:53:35;26.00;;;15.57;;
5742;SDS011;2896;53.500;10.020;2024-03-07T05:56:03;36.47;;;16.93;;
5742;SDS011;2896;53.500;10.020;2024-03-07T05:58:33;31.70;;;16.83;;
5742;SDS011;2896;53.500;10.020;2024-03-07T06:00:59;34.20;;;17.83;;
5742;SDS011;2896;53.500;10.020;2024-03-07T06:03:28;36.83;;;17.63;;
5742;SDS011;2896;53.500;10.020;2024-03-07T06:05:54;34.97;;;18.67;;
5742;SDS011;2896;53.500;10.020;2024-03-07T06:08:21;30.30;;;18.23;;
5742;SDS011;2896;53.500;10.020;2024-03-07T06:10:48;29.77;;;17.57;;
5742;SDS011;2896;53.500;10.020;2024-03-07T06:13:15;35.67;;;18.50;;
5742;SDS011;2896;53.500;10.020;2024-03-07T06:15:43;30.50;;;17.90;;
5742;SDS011;2896;53.500;10.020;2024-03-07T06:18:11;31.63;;;18.30;;
5742;SDS011;2896;53.500;10.020;2024-03-07T06:20:39;33.93;;;19.03;;
5742;SDS011;2896;53.500;10.020;2024-03-07T06:23:07;35.60;;;18.67;;
5742;SDS011;2896;53.500;10.020;2024-03-07T06:25:35;33.77;;;19.27;;
5742;SDS011;2896;53.500;10.020;2024-03-07T06:28:03;38.93;;;20.23;;
5742;SDS011;2896;53.500;10.020;2024-03-07T06:30:35;34.20;;;19.10;;
5742;SDS011;2896;53.500;10.020;2024-03-07T06:33:03;27.20;;;17.53;;
5742;SDS011;2896;53.500;10.020;2024-03-07T06:35:30;37.60;;;21.50;;
5742;SDS011;2896;53.500;10.020;2024-03-07T06:37:58;28.80;;;18.37;;
5742;SDS011;2896;53.500;10.020;2024-03-07T06:40:25;31.60;;;19.13;;
5742;SDS011;2896;53.500;10.020;2024-03-07T06:42:52;32.17;;;20.00;;
5742;SDS011;2896;53.500;10.020;2024-03-07T06:45:18;29.60;;;18.43;;
5742;SDS011;2896;53.500;10.020;2024-03-07T06:47:45;35.43;;;19.43;;
5742;SDS011;2896;53.500;10.020;2024-03-07T06:50:13;31.50;;;19.40;;
5742;SDS011;2896;53.500;10.020;2024-03-07T06:52:44;30.30;;;18.60;;
5742;SDS011;2896;53.500;10.020;2024-03-07T06:55:13;29.53;;;19.50;;
5742;SDS011;2896;53.500;10.020;2024-03-07T06:57:41;28.80;;;16.77;;
5742;SDS011;2896;53.500;10.020;2024-03-07T07:00:08;30.57;;;18.63;;
5742;SDS011;2896;53.500;10.020;2024-03-07T07:02:37;26.97;;;18.20;;
5742;SDS011;2896;53.500;10.020;2024-03-07T07:05:04;35.77;;;19.03;;
5742;SDS011;2896;53.500;10.020;2024-03-07T07:07:36;34.47;;;19.27;;
5742;SDS011;2896;53.500;10.020;2024-03-07T07:10:03;35.17;;;21.53;;
5742;SDS011;2896;53.500;10.020;2024-03-07T07:12:35;38.20;;;20.73;;
5742;SDS011;2896;53.500;10.020;2024-03-07T07:15:02;33.53;;;18.77;;
5742;SDS011;2896;53.500;10.020;2024-03-07T07:17:29;34.90;;;20.03;;
5742;SDS011;2896;53.500;10.020;2024-03-07T07:19:57;30.73;;;19.93;;
5742;SDS011;2896;53.500;10.020;2024-03-07T07:22:24;32.03;;;19.13;;
5742;SDS011;2896;53.500;10.020;2024-03-07T07:24:52;27.47;;;16.60;;
5742;SDS011;2896;53.500;10.020;2024-03-07T07:27:18;28.13;;;17.70;;
5742;SDS011;2896;53.500;10.020;2024-03-07T07:29:47;26.33;;;16.20;;
5742;SDS011;2896;53.500;10.020;2024-03-07T07:32:14;30.47;;;17.67;;
5742;SDS011;2896;53.500;10.020;2024-03-07T07:34:41;23.83;;;15.47;;
5742;SDS011;2896;53.500;10.020;2024-03-07T07:37:08;25.57;;;16.97;;
5742;SDS011;2896;53.500;10.020;2024-03-07T07:39:35;32.83;;;17.13;;
5742;SDS011;2896;53.500;10.020;2024-03-07T07:42:02;24.27;;;16.80;;
5742;SDS011;2896;53.500;10.020;2024-03-07T07:44:29;28.50;;;16.27;;
5742;SDS011;2896;53.500;10.020;2024-03-07T07:46:57;23.20;;;15.60;;
5742;SDS011;2896;53.500;10.020;2024-03-07T07:49:24;30.87;;;15.37;;
5742;SDS011;2896;53.500;10.020;2024-03-07T07:51:51;29.93;;;16.47;;
5742;SDS011;2896;53.500;10.020;2024-03-07T07:54:18;23.73;;;15.33;;
5742;SDS011;2896;53.500;10.020;2024-03-07T07:56:45;24.07;;;14.67;;
5742;SDS011;2896;53.500;10.020;2024-03-07T07:59:12;17.30;;;13.10;;
5742;SDS011;2896;53.500;10.020;2024-03-07T08:01:39;23.43;;;14.07;;
5742;SDS011;2896;53.500;10.020;2024-03-07T08:04:07;23.03;;;14.70;;
5742;SDS011;2896;53.500;10.020;2024-03-07T08:06:36;25.90;;;15.27;;
5742;SDS011;2896;53.500;10.020;2024-03-07T08:09:02;21.93;;;15.27;;
5742;SDS011;2896;53.500;10.020;2024-03-07T08:11:32;34.27;;;13.63;;
5742;SDS011;2896;53.500;10.020;2024-03-07T08:13:58;20.93;;;13.43;;
5742;SDS011;2896;53.500;10.020;2024-03-07T08:16:26;21.17;;;12.23;;
5742;SDS011;2896;53.500;10.020;2024-03-07T08:18:52;28.40;;;14.40;;
5742;SDS011;2896;53.500;10.020;2024-03-07T08:21:22;30.27;;;14.70;;
5742;SDS011;2896;53.500;10.020;2024-03-07T08:23:49;22.60;;;13.43;;
5742;SDS011;2896;53.500;10.020;2024-03-07T08:26:15;21.53;;;12.87;;
5742;SDS011;2896;53.500;10.020;2024-03-07T08:28:42;24.00;;;14.30;;
5742;SDS011;2896;53.500;10.020;2024-03-07T08:31:09;25.30;;;14.00;;
5742;SDS011;2896;53.500;10.020;2024-03-07T08:33:35;25.00;;;14.93;;
5742;SDS011;2896;53.500;10.020;2024-03-07T08:36:02;28.40;;;15.10;;
5742;SDS011;2896;53.500;10.020;2024-03-07T08:38:31;26.30;;;14.50;;
5742;SDS011;2896;53.500;10.020;2024-03-07T08:40:58;20.77;;;13.43;;
5742;SDS011;2896;53.500;10.020;2024-03-07T08:43:25;20.60;;;13.60;;
5742;SDS011;2896;53.500;10.020;2024-03-07T08:45:52;21.43;;;13.53;;
5742;SDS011;2896;53.500;10.020;2024-03-07T08:48:19;25.77;;;14.13;;
5742;SDS011;2896;53.500;10.020;2024-03-07T08:50:47;25.03;;;13.97;;
5742;SDS011;2896;53.500;10.020;2024-03-07T08:53:14;21.23;;;13.87;;
5742;SDS011;2896;53.500;10.020;2024-03-07T08:55:41;22.10;;;13.87;;
5742;SDS011;2896;53.500;10.020;2024-03-07T08:58:08;24.83;;;13.83;;
5742;SDS011;2896;53.500;10.020;2024-03-07T09:00:35;20.13;;;14.00;;
5742;SDS011;2896;53.500;10.020;2024-03-07T09:03:02;19.70;;;14.40;;
5742;SDS011;2896;53.500;10.020;2024-03-07T09:05:31;37.77;;;13.80;;
5742;SDS011;2896;53.500;10.020;2024-03-07T09:07:58;24.37;;;11.60;;
5742;SDS011;2896;53.500;10.020;2024-03-07T09:10:25;21.23;;;12.77;;
5742;SDS011;2896;53.500;10.020;2024-03-07T09:12:56;19.53;;;11.20;;
5742;SDS011;2896;53.500;10.020;2024-03-07T09:15:22;20.73;;;12.00;;
5742;SDS011;2896;53.500;10.020;2024-03-07T09:17:49;18.70;;;11.80;;
5742;SDS011;2896;53.500;10.020;2024-03-07T09:20:16;21.53;;;11.90;;
5742;SDS011;2896;53.500;10.020;2024-03-07T09:22:43;17.20;;;12.37;;
5742;SDS011;2896;53.500;10.020;2024-03-07T09:25:12;18.73;;;11.40;;
5742;SDS011;2896;53.500;10.020;2024-03-07T09:27:41;25.40;;;12.87;;
5742;SDS011;2896;53.500;10.020;2024-03-07T09:30:09;23.93;;;11.87;;
5742;SDS011;2896;53.500;10.020;2024-03-07T09:32:39;20.83;;;12.07;;
5742;SDS011;2896;53.500;10.020;2024-03-07T09:35:07;22.77;;;13.83;;
5742;SDS011;2896;53.500;10.020;2024-03-07T09:37:37;22.87;;;12.13;;
5742;SDS011;2896;53.500;10.020;2024-03-07T09:40:05;42.17;;;14.00;;
5742;SDS011;2896;53.500;10.020;2024-03-07T09:42:34;21.47;;;12.90;;
5742;SDS011;2896;53.500;10.020;2024-03-07T09:45:03;23.20;;;13.30;;
5742;SDS011;2896;53.500;10.020;2024-03-07T09:47:33;25.13;;;13.67;;
5742;SDS011;2896;53.500;10.020;2024-03-07T09:49:59;27.53;;;13.50;;
5742;SDS011;2896;53.500;10.020;2024-03-07T09:52:27;23.73;;;14.00;;
5742;SDS011;2896;53.500;10.020;2024-03-07T09:54:55;27.83;;;14.00;;
5742;SDS011;2896;53.500;10.020;2024-03-07T09:57:24;25.30;;;14.10;;
5742;SDS011;2896;53.500;10.020;2024-03-07T09:59:52;22.13;;;14.00;;
5742;SDS011;2896;53.500;10.020;2024-03-07T10:02:19;34.10;;;14.90;;
5742;SDS011;2896;53.500;10.020;2024-03-07T10:04:51;25.67;;;15.37;;
5742;SDS011;2896;53.500;10.020;2024-03-07T10:07:20;27.00;;;14.93;;
5742;SDS011;2896;53.500;10.020;2024-03-07T10:09:47;25.37;;;16.00;;
5742;SDS011;2896;53.500;10.020;2024-03-07T10:12:17;29.90;;;15.50;;
5742;SDS011;2896;53.500;10.020;2024-03-07T10:14:50;29.67;;;15.83;;
5742;SDS011;2896;53.500;10.020;2024-03-07T10:17:23;29.73;;;16.17;;
5742;SDS011;2896;53.500;10.020;2024-03-07T10:19:52;24.63;;;15.73;;
5742;SDS011;2896;53.500;10.020;2024-03-07T10:22:19;30.13;;;16.27;;
5742;SDS011;2896;53.500;10.020;2024-03-07T10:24:49;23.70;;;15.83;;
5742;SDS011;2896;53.500;10.020;2024-03-07T10:27:17;34.33;;;17.50;;
5742;SDS011;2896;53.500;10.020;2024-03-07T10:29:46;32.77;;;16.97;;
5742;SDS011;2896;53.500;10.020;2024-03-07T10:32:13;28.00;;;17.97;;
5742;SDS011;2896;53.500;10.020;2024-03-07T10:34:39;29.50;;;16.97;;
5742;SDS011;2896;53.500;10.020;2024-03-07T10:37:12;29.33;;;16.63;;
5742;SDS011;2896;53.500;10.020;2024-03-07T10:39:41;33.67;;;15.73;;
5742;SDS011;2896;53.500;10.020;2024-03-07T10:42:08;26.80;;;16.13;;
5742;SDS011;2896;53.500;10.020;2024-03-07T10:44:41;35.20;;;16.30;;
5742;SDS011;2896;53.500;10.020;2024-03-07T10:47:10;26.33;;;17.00;;
5742;SDS011;2896;53.500;10.020;2024-03-07T10:49:43;27.40;;;16.60;;
5742;SDS011;2896;53.500;10.020;2024-03-07T10:52:23;32.17;;;16.20;;
5742;SDS011;2896;53.500;10.020;2024-03-07T10:54:56;30.80;;;16.40;;
5742;SDS011;2896;53.500;10.020;2024-03-07T10:57:31;28.27;;;16.47;;
5742;SDS011;2896;53.500;10.020;2024-03-07T11:00:07;38.83;;;16.73;;
5742;SDS011;2896;53.500;10.020;2024-03-07T11:02:54;29.60;;;16.50;;
5742;SDS011;2896;53.500;10.020;2024-03-07T11:05:22;24.50;;;16.17;;
5742;SDS011;2896;53.500;10.020;2024-03-07T11:07:55;27.73;;;15.73;;
5742;SDS011;2896;53.500;10.020;2024-03-07T11:10:24;31.07;;;16.53;;
5742;SDS011;2896;53.500;10.020;2024-03-07T11:12:51;29.07;;;14.73;;
5742;SDS011;2896;53.500;10.020;2024-03-07T11:15:18;34.93;;;16.77;;
5742;SDS011;2896;53.500;10.020;2024-03-07T11:17:47;27.77;;;15.93;;
5742;SDS011;2896;53.500;10.020;2024-03-07T11:20:20;23.80;;;15.40;;
5742;SDS011;2896;53.500;10.020;2024-03-07T11:22:48;21.23;;;15.07;;
5742;SDS011;2896;53.500;10.020;2024-03-07T11:25:18;27.93;;;13.90;;
5742;SDS011;2896;53.500;10.020;2024-03-07T11:27:52;29.27;;;15.90;;
5742;SDS011;2896;53.500;10.020;2024-03-07T11:30:21;25.83;;;15.57;;
5742;SDS011;2896;53.500;10.020;2024-03-07T11:32:48;36.67;;;16.53;;
5742;SDS011;2896;53.500;10.020;2024-03-07T11:35:18;27.53;;;16.30;;
5742;SDS011;2896;53.500;10.020;2024-03-07T11:37:50;27.50;;;15.63;;
5742;SDS011;2896;53.500;10.020;2024-03-07T11:43:14;24.07;;;15.53;;
5742;SDS011;2896;53.500;10.020;2024-03-07T11:45:40;24.30;;;15.70;;
5742;SDS011;2896;53.500;10.020;2024-03-07T11:48:10;29.20;;;16.87;;
5742;SDS011;2896;53.500;10.020;2024-03-07T11:50:38;24.33;;;15.50;;
5742;SDS011;2896;53.500;10.020;2024-03-07T11:53:06;28.13;;;16.47;;
5742;SDS011;2896;53.500;10.020;2024-03-07T11:55:33;29.37;;;16.30;;
5742;SDS011;2896;53.500;10.020;2024-03-07T11:58:08;25.17;;;16.20;;
5742;SDS011;2896;53.500;10.020;2024-03-07T12:00:37;26.83;;;16.27;;
5742;SDS011;2896;53.500;10.020;2024-03-07T12:03:07;24.83;;;16.53;;
5742;SDS011;2896;53.500;10.020;2024-03-07T12:05:38;34.50;;;16.43;;
5742;SDS011;2896;53.500;10.020;2024-03-07T12:08:05;30.27;;;16.87;;
5742;SDS011;2896;53.500;10.020;2024-03-07T12:10:34;36.13;;;18.60;;
5742;SDS011;2896;53.500;10.020;2024-03-07T12:13:03;33.33;;;17.73;;
5742;SDS011;2896;53.500;10.020;2024-03-07T12:15:32;28.00;;;16.63;;
5742;SDS011;2896;53.500;10.020;2024-03-07T12:17:59;32.63;;;17.80;;
5742;SDS011;2896;53.500;10.020;2024-03-07T12:20:33;31.00;;;17.97;;
5742;SDS011;2896;53.500;10.020;2024-03-07T12:23:00;25.27;;;16.97;;
5742;SDS011;2896;53.500;10.020;2024-03-07T12:25:27;30.23;;;17.03;;
5742;SDS011;2896;53.500;10.020;2024-03-07T12:28:04;32.87;;;18.10;;
5742;SDS011;2896;53.500;10.020;2024-03-07T12:30:37;28.30;;;17.57;;
5742;SDS011;2896;53.500;10.020;2024-03-07T12:33:15;36.57;;;17.90;;
5742;SDS011;2896;53.500;10.020;2024-03-07T12:35:43;48.07;;;18.50;;
5742;SDS011;2896;53.500;10.020;2024-03-07T12:38:10;29.80;;;17.70;;
5742;SDS011;2896;53.500;10.020;2024-03-07T12:40:39;32.90;;;18.87;;
5742;SDS011;2896;53.500;10.020;2024-03-07T12:43:14;29.27;;;18.23;;
5742;SDS011;2896;53.500;10.020;2024-03-07T12:45:48;25.73;;;17.20;;
5742;SDS011;2896;53.500;10.020;2024-03-07T12:48:16;36.13;;;19.87;;
5742;SDS011;2896;53.500;10.020;2024-03-07T12:50:45;33.40;;;18.87;;
5742;SDS011;2896;53.500;10.020;2024-03-07T12:53:12;30.30;;;18.00;;
5742;SDS011;2896;53.500;10.020;2024-03-07T12:55:39;30.60;;;19.03;;
5742;SDS011;2896;53.500;10.020;2024-03-07T12:58:07;30.10;;;18.60;;
5742;SDS011;2896;53.500;10.020;2024-03-07T13:00:36;33.93;;;18.73;;
5742;SDS011;2896;53.500;10.020;2024-03-07T13:03:05;35.63;;;19.63;;
5742;SDS011;2896;53.500;10.020;2024-03-07T13:05:31;35.83;;;18.57;;
5742;SDS011;2896;53.500;10.020;2024-03-07T13:07:58;29.90;;;18.30;;
5742;SDS011;2896;53.500;10.020;2024-03-07T13:10:25;38.23;;;18.40;;
5742;SDS011;2896;53.500;10.020;2024-03-07T13:12:52;50.87;;;19.43;;
5742;SDS011;2896;53.500;10.020;2024-03-07T13:15:19;32.37;;;18.63;;
5742;SDS011;2896;53.500;10.020;2024-03-07T13:17:47;33.30;;;19.23;;
5742;SDS011;2896;53.500;10.020;2024-03-07T13:20:19;34.23;;;19.50;;
5742;SDS011;2896;53.500;10.020;2024-03-07T13:22:51;34.60;;;19.30;;
5742;SDS011;2896;53.500;10.020;2024-03-07T13:25:19;28.73;;;18.03;;
5742;SDS011;2896;53.500;10.020;2024-03-07T13:27:51;29.00;;;19.10;;
5742;SDS011;2896;53.500;10.020;2024-03-07T13:30:24;28.80;;;18.00;;
5742;SDS011;2896;53.500;10.020;2024-03-07T13:32:53;31.23;;;19.10;;
5742;SDS011;2896;53.500;10.020;2024-03-07T13:35:22;33.80;;;18.80;;
5742;SDS011;2896;53.500;10.020;2024-03-07T13:37:50;34.00;;;18.33;;
5742;SDS011;2896;53.500;10.020;2024-03-07T13:40:19;37.67;;;21.30;;
5742;SDS011;2896;53.500;10.020;2024-03-07T13:42:50;33.33;;;19.37;;
5742;SDS011;2896;53.500;10.020;2024-03-07T13:45:21;34.10;;;20.60;;
5742;SDS011;2896;53.500;10.020;2024-03-07T13:47:51;30.07;;;17.73;;
5742;SDS011;2896;53.500;10.020;2024-03-07T13:50:20;29.83;;;19.30;;
5742;SDS011;2896;53.500;10.020;2024-03-07T13:52:49;32.37;;;18.93;;
5742;SDS011;2896;53.500;10.020;2024-03-07T13:58:24;32.93;;;19.50;;
5742;SDS011;2896;53.500;10.020;2024-03-07T14:01:04;36.90;;;18.50;;
5742;SDS011;2896;53.500;10.020;2024-03-07T14:03:55;28.20;;;17.67;;
5742;SDS011;2896;53.500;10.020;2024-03-07T14:06:41;39.83;;;17.43;;
5742;SDS011;2896;53.500;10.020;2024-03-07T14:09:24;28.93;;;18.00;;
5742;SDS011;2896;53.500;10.020;2024-03-07T14:12:11;31.67;;;19.23;;
5742;SDS011;2896;53.500;10.020;2024-03-07T14:15:21;31.50;;;19.07;;
5742;SDS011;2896;53.500;10.020;2024-03-07T14:21:44;30.60;;;18.30;;
5742;SDS011;2896;53.500;10.020;2024-03-07T14:27:35;30.20;;;18.73;;
5742;SDS011;2896;53.500;10.020;2024-03-07T14:30:11;34.10;;;18.30;;
5742;SDS011;2896;53.500;10.020;2024-03-07T14:32:48;28.10;;;16.70;;
5742;SDS011;2896;53.500;10.020;2024-03-07T14:35:18;26.07;;;16.90;;
5742;SDS011;2896;53.500;10.020;2024-03-07T14:37:52;27.53;;;17.83;;
5742;SDS011;2896;53.500;10.020;2024-03-07T14:40:22;34.10;;;18.80;;
5742;SDS011;2896;53.500;10.020;2024-03-07T14:42:51;32.20;;;17.50;;
5742;SDS011;2896;53.500;10.020;2024-03-07T14:45:23;26.10;;;17.30;;
5742;SDS011;2896;53.500;10.020;2024-03-07T14:47:56;28.30;;;17.33;;
5742;SDS011;2896;53.500;10.020;2024-03-07T14:50:24;28.50;;;19.33;;
5742;SDS011;2896;53.500;10.020;2024-03-07T14:52:55;29.27;;;18.33;;
5742;SDS011;2896;53.500;10.020;2024-03-07T14:55:23;30.27;;;18.50;;